createdAt,value
2022-09-28T00:01:07.536Z,9.09
2022-09-28T00:03:34.866Z,9.08
2022-09-28T00:06:07.221Z,9.06
2022-09-28T00:08:35.847Z,8.96
2022-09-28T00:11:04.661Z,8.91
2022-09-28T00:13:33.284Z,8.83
2022-09-28T00:16:01.078Z,8.79
2022-09-28T00:18:28.520Z,8.64
2022-09-28T00:21:06.818Z,8.67
2022-09-28T00:23:34.429Z,8.65
2022-09-28T00:26:06.105Z,8.63
2022-09-28T00:28:32.941Z,8.71
2022-09-28T00:30:59.712Z,8.76
2022-09-28T00:33:26.697Z,8.70
2022-09-28T00:35:58.214Z,8.74
2022-09-28T00:38:29.388Z,8.69
2022-09-28T00:40:56.551Z,8.68
2022-09-28T00:43:24.400Z,8.70
2022-09-28T00:46:00.327Z,8.69
2022-09-28T00:48:32.361Z,8.65
2022-09-28T00:51:03.210Z,8.66
2022-09-28T00:53:34.988Z,8.50
2022-09-28T00:56:07.575Z,8.45
2022-09-28T00:58:41.816Z,8.50
2022-09-28T01:01:08.728Z,8.44
2022-09-28T01:03:36.735Z,8.49
2022-09-28T01:06:06.584Z,8.48
2022-09-28T01:08:34.525Z,8.41
2022-09-28T01:11:02.070Z,8.36
2022-09-28T01:13:35.316Z,8.48
2022-09-28T01:16:19.412Z,8.55
2022-09-28T01:19:10.404Z,8.66
2022-09-28T01:21:52.409Z,8.60
2022-09-28T01:24:34.905Z,8.83
2022-09-28T01:27:15.123Z,8.99
2022-09-28T01:30:02.148Z,9.00
2022-09-28T01:32:37.289Z,8.98
2022-09-28T01:35:15.877Z,9.03
2022-09-28T01:38:17.357Z,9.09
2022-09-28T01:40:47.507Z,9.35
2022-09-28T01:43:26.637Z,9.48
2022-09-28T01:45:56.081Z,9.50
2022-09-28T01:48:31.445Z,9.49
2022-09-28T01:51:02.000Z,9.66
2022-09-28T01:53:43.312Z,9.89
2022-09-28T01:56:24.319Z,9.90
2022-09-28T01:58:56.361Z,9.96
2022-09-28T02:01:53.563Z,10.08
2022-09-28T02:04:26.954Z,10.16
2022-09-28T02:06:58.827Z,10.02
2022-09-28T02:09:36.043Z,9.89
2022-09-28T02:12:16.177Z,9.68
2022-09-28T02:14:47.015Z,9.58
2022-09-28T02:17:16.190Z,9.49
2022-09-28T02:19:43.759Z,9.47
2022-09-28T02:22:13.279Z,9.65
2022-09-28T02:24:44.706Z,9.64
2022-09-28T02:27:42.342Z,9.59
2022-09-28T02:30:10.388Z,9.52
2022-09-28T02:32:42.614Z,9.38
2022-09-28T02:35:12.300Z,9.21
2022-09-28T02:37:40.576Z,9.11
2022-09-28T02:40:19.958Z,9.38
2022-09-28T02:42:49.884Z,9.26
2022-09-28T02:45:41.570Z,9.47
2022-09-28T02:48:14.021Z,9.41
2022-09-28T02:51:04.136Z,9.35
2022-09-28T02:53:46.718Z,9.24
2022-09-28T02:56:19.218Z,9.16
2022-09-28T02:59:24.980Z,9.11
2022-09-28T03:01:51.792Z,9.20
2022-09-28T03:04:52.784Z,9.21
2022-09-28T03:07:28.684Z,9.40
2022-09-28T03:10:19.798Z,9.45
2022-09-28T03:12:49.037Z,9.61
2022-09-28T03:15:23.603Z,9.52
2022-09-28T03:17:50.450Z,9.45
2022-09-28T03:20:17.783Z,9.35
2022-09-28T03:23:00.304Z,9.38
2022-09-28T03:25:31.884Z,9.30
2022-09-28T03:27:58.784Z,9.14
2022-09-28T03:30:25.595Z,9.35
2022-09-28T03:33:00.172Z,9.21
2022-09-28T03:35:27.181Z,9.49
2022-09-28T03:37:57.581Z,9.39
2022-09-28T03:40:24.555Z,9.26
2022-09-28T03:42:51.441Z,9.10
2022-09-28T03:45:18.263Z,8.98
2022-09-28T03:47:46.711Z,8.89
2022-09-28T03:50:13.845Z,8.81
2022-09-28T03:52:40.693Z,8.81
2022-09-28T03:55:07.783Z,8.80
2022-09-28T03:57:34.629Z,8.81
2022-09-28T04:00:01.608Z,8.82
2022-09-28T04:02:28.399Z,8.83
2022-09-28T04:04:55.188Z,8.71
2022-09-28T04:07:21.903Z,8.79
2022-09-28T04:09:49.253Z,8.71
2022-09-28T04:12:15.995Z,8.60
2022-09-28T04:14:42.813Z,8.64
2022-09-28T04:17:09.538Z,8.55
2022-09-28T04:19:36.292Z,8.43
2022-09-28T04:22:03.170Z,8.50
2022-09-28T04:24:29.895Z,8.44
2022-09-28T04:27:16.641Z,8.45
2022-09-28T04:29:44.167Z,8.42
2022-09-28T04:32:11.993Z,8.55
2022-09-28T04:34:43.742Z,8.66
2022-09-28T04:37:10.965Z,8.61
2022-09-28T04:39:38.005Z,8.62
2022-09-28T04:42:05.627Z,8.59
2022-09-28T04:44:32.465Z,8.51
2022-09-28T04:47:02.962Z,8.55
2022-09-28T04:49:31.963Z,8.56
2022-09-28T04:51:58.724Z,8.48
2022-09-28T04:54:25.484Z,8.53
2022-09-28T04:56:53.411Z,8.51
2022-09-28T04:59:20.361Z,8.45
2022-09-28T05:01:47.595Z,8.43
2022-09-28T05:04:14.366Z,8.39
2022-09-28T05:06:41.289Z,8.32
2022-09-28T05:09:09.527Z,8.29
2022-09-28T05:11:36.351Z,8.32
2022-09-28T05:14:03.269Z,8.28
2022-09-28T05:16:33.749Z,8.28
2022-09-28T05:19:00.703Z,8.30
2022-09-28T05:21:29.295Z,8.34
2022-09-28T05:23:56.753Z,8.57
2022-09-28T05:26:23.742Z,8.59
2022-09-28T05:28:51.030Z,8.55
2022-09-28T05:31:17.951Z,8.53
2022-09-28T05:33:44.762Z,8.53
2022-09-28T05:36:11.774Z,8.50
2022-09-28T05:38:38.585Z,8.53
2022-09-28T05:41:06.692Z,8.62
2022-09-28T05:43:33.902Z,8.58
2022-09-28T05:46:00.930Z,8.63
2022-09-28T05:48:28.420Z,8.69
2022-09-28T05:50:55.906Z,8.70
2022-09-28T05:53:22.752Z,8.73
2022-09-28T05:55:49.577Z,8.77
2022-09-28T05:58:17.064Z,8.88
2022-09-28T06:00:44.134Z,8.92
2022-09-28T06:03:13.630Z,8.98
2022-09-28T06:05:41.033Z,9.00
2022-09-28T06:08:12.907Z,9.10
2022-09-28T06:10:40.119Z,9.20
2022-09-28T06:13:07.858Z,9.29
2022-09-28T06:15:36.374Z,9.36
2022-09-28T06:18:15.058Z,9.38
2022-09-28T06:20:42.964Z,9.44
2022-09-28T06:23:11.401Z,9.42
2022-09-28T06:25:39.051Z,9.55
2022-09-28T06:28:10.106Z,9.59
2022-09-28T06:30:38.578Z,9.69
2022-09-28T06:33:08.398Z,9.80
2022-09-28T06:35:35.861Z,9.88
2022-09-28T06:38:03.230Z,9.96
2022-09-28T06:40:30.688Z,10.03
2022-09-28T06:42:59.899Z,10.12
2022-09-28T06:45:28.920Z,10.18
2022-09-28T06:48:00.535Z,10.37
2022-09-28T06:50:32.429Z,10.47
2022-09-28T06:53:03.814Z,10.71
2022-09-28T06:55:30.778Z,10.90
2022-09-28T06:57:59.472Z,11.07
2022-09-28T07:00:32.922Z,11.23
2022-09-28T07:03:02.196Z,11.49
2022-09-28T07:05:30.008Z,11.58
2022-09-28T07:07:59.575Z,11.69
2022-09-28T07:10:28.743Z,11.89
2022-09-28T07:12:57.201Z,12.20
2022-09-28T07:15:24.683Z,12.44
2022-09-28T07:18:02.618Z,12.62
2022-09-28T07:20:31.269Z,12.73
2022-09-28T07:23:11.333Z,13.06
2022-09-28T07:25:45.664Z,13.22
2022-09-28T07:28:12.531Z,13.54
2022-09-28T07:30:39.781Z,13.61
2022-09-28T07:33:09.498Z,13.60
2022-09-28T07:35:36.408Z,13.84
2022-09-28T07:38:06.217Z,14.02
2022-09-28T07:40:53.346Z,14.19
2022-09-28T07:43:21.607Z,14.52
2022-09-28T07:45:55.825Z,14.60
2022-09-28T07:48:23.149Z,14.90
2022-09-28T07:50:53.719Z,14.89
2022-09-28T07:53:22.965Z,15.32
2022-09-28T07:56:02.095Z,15.70
2022-09-28T07:58:29.389Z,15.97
2022-09-28T08:00:56.240Z,16.42
2022-09-28T08:03:23.066Z,16.24
2022-09-28T08:05:50.079Z,16.21
2022-09-28T08:08:16.971Z,16.21
2022-09-28T08:10:46.855Z,16.37
2022-09-28T08:13:15.293Z,16.99
2022-09-28T08:15:42.718Z,17.78
2022-09-28T08:18:10.184Z,17.64
2022-09-28T08:20:55.518Z,18.12
2022-09-28T08:23:23.646Z,18.12
2022-09-28T08:25:55.223Z,17.99
2022-09-28T08:28:23.340Z,17.48
2022-09-28T08:30:51.017Z,17.36
2022-09-28T08:33:21.291Z,17.57
2022-09-28T08:35:54.758Z,17.51
2022-09-28T08:38:21.659Z,17.32
2022-09-28T08:41:05.963Z,16.91
2022-09-28T08:44:04.786Z,17.18
2022-09-28T08:46:37.115Z,17.94
2022-09-28T08:49:24.574Z,18.20
2022-09-28T08:52:16.456Z,19.07
2022-09-28T08:55:09.927Z,18.53
2022-09-28T08:57:56.951Z,18.28
2022-09-28T09:00:49.076Z,18.92
2022-09-28T09:03:23.818Z,17.97
2022-09-28T09:06:19.054Z,16.86
2022-09-28T09:09:20.117Z,16.63
2022-09-28T09:12:06.381Z,16.45
2022-09-28T09:14:33.182Z,17.23
2022-09-28T09:17:13.967Z,17.65
2022-09-28T09:20:05.920Z,18.34
2022-09-28T09:22:41.352Z,18.01
2022-09-28T09:25:26.056Z,18.50
2022-09-28T09:28:04.904Z,17.52
2022-09-28T09:30:44.608Z,17.27
2022-09-28T09:33:15.864Z,17.53
2022-09-28T09:36:10.475Z,17.85
2022-09-28T09:38:58.423Z,17.70
2022-09-28T09:42:05.873Z,18.34
2022-09-28T09:44:54.846Z,17.51
2022-09-28T09:47:29.449Z,18.51
2022-09-28T09:50:08.369Z,18.82
2022-09-28T09:53:19.036Z,19.27
2022-09-28T09:55:48.420Z,18.75
2022-09-28T09:58:25.756Z,19.16
2022-09-28T10:00:55.920Z,18.38
2022-09-28T10:03:27.131Z,19.43
2022-09-28T10:06:01.741Z,19.57
2022-09-28T10:08:31.073Z,19.10
2022-09-28T10:11:22.269Z,18.24
2022-09-28T10:13:49.340Z,18.77
2022-09-28T10:16:19.776Z,18.82
2022-09-28T10:18:47.575Z,19.29
2022-09-28T10:21:15.804Z,19.42
2022-09-28T10:23:43.495Z,19.52
2022-09-28T10:26:25.375Z,19.52
2022-09-28T10:28:58.984Z,19.71
2022-09-28T10:31:39.571Z,20.02
2022-09-28T10:34:08.799Z,19.88
2022-09-28T10:36:44.804Z,19.13
2022-09-28T10:39:39.138Z,18.36
2022-09-28T10:42:12.300Z,19.97
2022-09-28T10:45:01.148Z,19.01
2022-09-28T10:47:32.654Z,19.09
2022-09-28T10:50:00.903Z,20.12
2022-09-28T10:52:32.028Z,19.78
2022-09-28T10:55:32.394Z,20.20
2022-09-28T10:58:00.192Z,20.29
2022-09-28T11:00:29.853Z,20.70
2022-09-28T11:02:57.151Z,20.66
2022-09-28T11:05:30.000Z,20.20
2022-09-28T11:08:00.114Z,19.04
2022-09-28T11:10:29.830Z,18.59
2022-09-28T11:12:57.471Z,19.26
2022-09-28T11:15:30.407Z,19.30
2022-09-28T11:18:17.388Z,18.23
2022-09-28T11:20:45.523Z,19.30
2022-09-28T11:23:23.383Z,18.56
2022-09-28T11:26:09.591Z,19.74
2022-09-28T11:28:37.631Z,20.20
2022-09-28T11:31:08.187Z,19.46
2022-09-28T11:33:38.818Z,20.97
2022-09-28T11:36:14.588Z,20.79
2022-09-28T11:38:50.423Z,20.10
2022-09-28T11:41:26.326Z,19.94
2022-09-28T11:44:06.369Z,20.51
2022-09-28T11:46:58.238Z,20.50
2022-09-28T11:50:03.602Z,21.24
2022-09-28T11:52:47.061Z,20.99
2022-09-28T11:56:08.724Z,21.29
2022-09-28T11:58:44.487Z,21.20
2022-09-28T12:01:23.596Z,21.03
2022-09-28T12:03:53.897Z,20.03
2022-09-28T12:06:31.393Z,19.07
2022-09-28T12:09:06.990Z,19.63
2022-09-28T12:11:39.209Z,20.02
2022-09-28T12:14:14.858Z,20.46
2022-09-28T12:17:09.832Z,20.22
2022-09-28T12:19:41.340Z,20.16
2022-09-28T12:22:21.444Z,20.89
2022-09-28T12:24:57.390Z,21.39
2022-09-28T12:27:39.027Z,21.38
2022-09-28T12:30:13.772Z,21.31
2022-09-28T12:32:50.800Z,20.24
2022-09-28T12:35:42.719Z,20.81
2022-09-28T12:38:46.011Z,21.34
2022-09-28T12:41:28.516Z,20.41
2022-09-28T12:44:17.606Z,20.98
2022-09-28T12:47:05.566Z,20.05
2022-09-28T12:50:37.213Z,20.65
2022-09-28T12:52:46.591Z,20.56
2022-09-28T12:56:06.336Z,21.13
2022-09-28T12:58:33.194Z,20.72
2022-09-28T13:01:30.949Z,21.21
2022-09-28T13:04:35.645Z,21.70
2022-09-28T13:07:12.589Z,21.42
2022-09-28T13:09:54.440Z,22.04
2022-09-28T13:12:24.547Z,20.53
2022-09-28T13:15:15.784Z,19.47
2022-09-28T13:17:45.074Z,19.73
2022-09-28T13:20:33.088Z,20.73
2022-09-28T13:23:08.733Z,20.61
2022-09-28T13:25:41.025Z,21.39
2022-09-28T13:28:10.563Z,21.65
2022-09-28T13:30:39.850Z,21.09
2022-09-28T13:33:14.183Z,20.70
2022-09-28T13:35:44.301Z,20.50
2022-09-28T13:38:17.556Z,20.24
2022-09-28T13:41:06.761Z,20.05
2022-09-28T13:43:45.350Z,20.02
2022-09-28T13:46:48.182Z,20.40
2022-09-28T13:49:52.859Z,20.12
2022-09-28T13:52:31.841Z,19.68
2022-09-28T13:55:25.067Z,20.08
2022-09-28T13:58:04.538Z,20.31
2022-09-28T14:01:00.031Z,19.70
2022-09-28T14:03:42.916Z,20.28
2022-09-28T14:06:31.205Z,20.70
2022-09-28T14:09:12.843Z,19.98
2022-09-28T14:11:42.597Z,19.99
2022-09-28T14:14:13.832Z,19.26
2022-09-28T14:16:42.321Z,19.27
2022-09-28T14:19:13.389Z,19.22
2022-09-28T14:21:58.383Z,18.78
2022-09-28T14:24:55.753Z,18.37
2022-09-28T14:28:04.932Z,18.11
2022-09-28T14:30:43.587Z,18.23
2022-09-28T14:33:22.105Z,18.15
2022-09-28T14:35:55.629Z,18.20
2022-09-28T14:39:07.332Z,17.94
2022-09-28T14:41:41.893Z,17.81
2022-09-28T14:44:11.068Z,17.65
2022-09-28T14:46:44.433Z,17.91
2022-09-28T14:49:17.575Z,17.84
2022-09-28T14:51:53.350Z,17.79
2022-09-28T14:54:22.145Z,17.81
2022-09-28T14:56:57.090Z,17.84
2022-09-28T14:59:25.589Z,17.48
2022-09-28T15:02:10.600Z,17.31
2022-09-28T15:04:51.710Z,17.31
2022-09-28T15:07:25.065Z,17.40
2022-09-28T15:09:54.262Z,17.45
2022-09-28T15:12:26.199Z,17.32
2022-09-28T15:15:04.972Z,17.30
2022-09-28T15:17:39.176Z,17.12
2022-09-28T15:20:41.618Z,17.05
2022-09-28T15:23:25.919Z,16.95
2022-09-28T15:25:55.061Z,17.02
2022-09-28T15:28:24.313Z,16.94
2022-09-28T15:30:58.686Z,17.03
2022-09-28T15:33:52.645Z,16.90
2022-09-28T15:36:24.266Z,16.96
2022-09-28T15:39:07.344Z,16.90
2022-09-28T15:41:34.373Z,16.92
2022-09-28T15:44:13.100Z,16.83
2022-09-28T15:46:42.415Z,16.74
2022-09-28T15:49:31.583Z,16.68
2022-09-28T15:52:03.027Z,16.59
2022-09-28T15:54:38.251Z,16.54
2022-09-28T15:57:05.112Z,16.51
2022-09-28T15:59:34.853Z,16.51
2022-09-28T16:02:16.827Z,16.48
2022-09-28T16:05:05.414Z,16.43
2022-09-28T16:07:40.636Z,16.40
2022-09-28T16:10:13.182Z,16.43
2022-09-28T16:12:39.882Z,16.40
2022-09-28T16:15:11.463Z,16.35
2022-09-28T16:17:38.478Z,16.29
2022-09-28T16:20:32.363Z,16.28
2022-09-28T16:23:05.951Z,16.23
2022-09-28T16:25:35.822Z,16.17
2022-09-28T16:28:03.445Z,16.18
2022-09-28T16:30:32.841Z,16.14
2022-09-28T16:33:05.700Z,16.12
2022-09-28T16:35:41.067Z,16.08
2022-09-28T16:38:16.132Z,16.02
2022-09-28T16:40:54.798Z,15.97
2022-09-28T16:43:28.371Z,15.89
2022-09-28T16:46:04.947Z,15.89
2022-09-28T16:48:37.145Z,15.82
2022-09-28T16:51:04.045Z,15.78
2022-09-28T16:53:49.545Z,15.81
2022-09-28T16:56:16.523Z,15.77
2022-09-28T16:58:44.213Z,15.73
2022-09-28T17:01:12.498Z,15.70
2022-09-28T17:03:42.387Z,15.70
2022-09-28T17:06:11.940Z,15.70
2022-09-28T17:08:39.050Z,15.71
2022-09-28T17:11:16.980Z,15.66
2022-09-28T17:13:47.192Z,15.62
2022-09-28T17:16:32.208Z,15.60
2022-09-28T17:19:23.719Z,15.61
2022-09-28T17:21:53.144Z,15.60
2022-09-28T17:24:20.635Z,15.53
2022-09-28T17:26:49.926Z,15.55
2022-09-28T17:29:16.933Z,15.58
2022-09-28T17:31:45.650Z,15.54
2022-09-28T17:34:15.249Z,15.55
2022-09-28T17:36:43.320Z,15.53
2022-09-28T17:39:15.211Z,15.51
2022-09-28T17:41:42.366Z,15.55
2022-09-28T17:44:09.713Z,15.52
2022-09-28T17:46:39.567Z,15.53
2022-09-28T17:49:10.356Z,15.47
2022-09-28T17:51:38.373Z,15.45
2022-09-28T17:54:06.940Z,15.42
2022-09-28T17:56:35.332Z,15.35
2022-09-28T17:59:05.907Z,15.34
2022-09-28T18:01:34.726Z,15.27
2022-09-28T18:04:03.713Z,15.12
2022-09-28T18:06:32.615Z,14.90
2022-09-28T18:08:59.808Z,14.68
2022-09-28T18:11:26.829Z,14.42
2022-09-28T18:13:53.702Z,14.31
2022-09-28T18:16:22.717Z,14.13
2022-09-28T18:18:49.675Z,13.99
2022-09-28T18:21:16.471Z,13.83
2022-09-28T18:23:43.346Z,13.67
2022-09-28T18:26:12.106Z,13.52
2022-09-28T18:28:39.605Z,13.41
2022-09-28T18:31:12.120Z,13.26
2022-09-28T18:33:39.434Z,13.21
2022-09-28T18:36:07.843Z,13.05
2022-09-28T18:38:35.713Z,13.02
2022-09-28T18:41:15.744Z,13.00
2022-09-28T18:43:50.316Z,12.90
2022-09-28T18:46:18.512Z,12.87
2022-09-28T18:48:47.878Z,12.77
2022-09-28T18:51:15.354Z,12.78
2022-09-28T18:53:42.492Z,12.78
2022-09-28T18:56:13.134Z,12.77
2022-09-28T18:58:41.473Z,12.74
2022-09-28T19:01:29.441Z,12.70
2022-09-28T19:04:06.323Z,12.67
2022-09-28T19:06:34.744Z,12.59
2022-09-28T19:09:01.614Z,12.58
2022-09-28T19:11:28.827Z,12.55
2022-09-28T19:13:56.414Z,12.54
2022-09-28T19:16:25.722Z,12.53
2022-09-28T19:18:53.732Z,12.51
2022-09-28T19:21:22.764Z,12.53
2022-09-28T19:23:50.116Z,12.54
2022-09-28T19:26:20.942Z,12.53
2022-09-28T19:28:49.008Z,12.55
2022-09-28T19:31:16.023Z,12.55
2022-09-28T19:33:45.084Z,12.56
2022-09-28T19:36:14.966Z,12.56
2022-09-28T19:38:42.312Z,12.56
2022-09-28T19:41:11.125Z,12.54
2022-09-28T19:43:38.572Z,12.63
2022-09-28T19:46:06.878Z,12.57
2022-09-28T19:48:34.952Z,12.66
2022-09-28T19:51:04.316Z,12.62
2022-09-28T19:53:38.798Z,12.67
2022-09-28T19:56:05.857Z,12.68
2022-09-28T19:58:36.650Z,12.64
2022-09-28T20:01:07.536Z,12.57
2022-09-28T20:03:34.844Z,12.63
2022-09-28T20:06:02.647Z,12.55
2022-09-28T20:08:32.786Z,12.51
2022-09-28T20:11:00.395Z,12.53
2022-09-28T20:13:32.534Z,12.48
2022-09-28T20:16:14.324Z,12.46
2022-09-28T20:18:44.180Z,12.46
2022-09-28T20:21:18.109Z,12.46
2022-09-28T20:23:46.437Z,12.48
2022-09-28T20:26:14.571Z,12.47
2022-09-28T20:28:41.929Z,12.49
2022-09-28T20:31:12.065Z,12.53
2022-09-28T20:33:39.340Z,12.57
2022-09-28T20:36:07.856Z,12.60
2022-09-28T20:38:37.253Z,12.59
2022-09-28T20:41:04.272Z,12.67
2022-09-28T20:43:31.505Z,12.62
2022-09-28T20:45:59.063Z,12.64
2022-09-28T20:48:26.486Z,12.64
2022-09-28T20:51:10.417Z,12.64
2022-09-28T20:53:38.464Z,12.57
2022-09-28T20:56:16.752Z,12.54
2022-09-28T20:58:43.560Z,12.56
2022-09-28T21:01:14.724Z,12.56
2022-09-28T21:03:47.067Z,12.56
2022-09-28T21:06:15.228Z,12.50
2022-09-28T21:08:44.189Z,12.50
2022-09-28T21:11:15.115Z,12.55
2022-09-28T21:13:43.013Z,12.62
2022-09-28T21:16:13.614Z,12.58
2022-09-28T21:18:41.352Z,12.54
2022-09-28T21:21:11.933Z,12.59
2022-09-28T21:23:39.371Z,12.49
2022-09-28T21:26:09.424Z,12.54
2022-09-28T21:28:38.209Z,12.56
2022-09-28T21:31:07.365Z,12.51
2022-09-28T21:33:34.329Z,12.48
2022-09-28T21:36:02.425Z,12.48
2022-09-28T21:38:30.087Z,12.47
2022-09-28T21:40:58.488Z,12.50
2022-09-28T21:43:27.117Z,12.50
2022-09-28T21:45:55.218Z,12.42
2022-09-28T21:48:24.310Z,12.45
2022-09-28T21:51:14.087Z,12.47
2022-09-28T21:53:40.921Z,12.47
2022-09-28T21:56:10.464Z,12.49
2022-09-28T21:58:37.315Z,12.53
2022-09-28T22:01:19.468Z,12.48
2022-09-28T22:03:56.463Z,12.43
2022-09-28T22:06:28.044Z,12.45
2022-09-28T22:08:56.090Z,12.43
2022-09-28T22:11:25.833Z,12.32
2022-09-28T22:13:56.199Z,12.37
2022-09-28T22:16:25.506Z,12.37
2022-09-28T22:18:55.130Z,12.39
2022-09-28T22:21:25.091Z,12.42
2022-09-28T22:23:52.974Z,12.45
2022-09-28T22:26:25.522Z,12.47
2022-09-28T22:28:56.611Z,12.48
2022-09-28T22:31:26.560Z,12.48
2022-09-28T22:33:54.896Z,12.47
2022-09-28T22:36:22.380Z,12.43
2022-09-28T22:38:49.702Z,12.39
2022-09-28T22:41:20.533Z,12.34
2022-09-28T22:43:49.436Z,12.36
2022-09-28T22:46:19.376Z,12.35
2022-09-28T22:48:47.957Z,12.35
2022-09-28T22:51:15.712Z,12.33
2022-09-28T22:53:42.621Z,12.33
2022-09-28T22:56:12.602Z,12.35
2022-09-28T22:58:43.009Z,12.36
2022-09-28T23:01:15.780Z,12.37
2022-09-28T23:03:44.696Z,12.33
2022-09-28T23:06:13.558Z,12.29
2022-09-28T23:08:40.272Z,12.25
2022-09-28T23:11:07.275Z,12.22
2022-09-28T23:13:35.167Z,12.19
2022-09-28T23:16:07.076Z,12.15
2022-09-28T23:18:36.129Z,12.18
2022-09-28T23:21:06.470Z,12.18
2022-09-28T23:23:33.906Z,12.21
2022-09-28T23:26:09.307Z,12.22
2022-09-28T23:28:36.276Z,12.21
2022-09-28T23:31:18.651Z,12.20
2022-09-28T23:33:46.222Z,12.15
2022-09-28T23:36:13.427Z,12.15
2022-09-28T23:38:40.646Z,12.21
2022-09-28T23:41:08.064Z,12.19
2022-09-28T23:43:36.197Z,12.19
2022-09-28T23:46:04.689Z,12.09
2022-09-28T23:48:32.074Z,12.14
2022-09-28T23:50:59.047Z,12.13
2022-09-28T23:53:26.752Z,12.13
2022-09-28T23:55:53.833Z,12.12
2022-09-28T23:58:20.958Z,12.15
